Time;durP1;ratioP1;P1;durP2;ratioP2;P2;SDS_P1;SDS_P2;PMS_P1;PMS_P2;Temp;Humidity;BMP_temperature;BMP_pressure;BME280_temperature;BME280_humidity;BME280_pressure;Samples;Min_cycle;Max_cycle;Signal;HPM_P1;HPM_P2
2024/01/01 00:01:58;;;;;;;74.00;48.63;;;23.40;44.30;;;;;;6231762;27;83820;-62
2024/01/01 00:04:58;;;;;;;70.72;48.33;;;23.50;44.30;;;;;;6229863;27;83415;-62
2024/01/01 00:07:59;;;;;;;76.03;48.67;;;23.50;44.40;;;;;;6235660;27;83786;-62
2024/01/01 00:10:59;;;;;;;74.90;47.33;;;23.50;44.80;;;;;;6233558;27;83730;-62
2024/01/01 00:14:00;;;;;;;64.50;42.85;;;23.50;45.00;;;;;;6235193;27;86816;-73
2024/01/01 00:17:01;;;;;;;59.33;39.17;;;23.50;45.40;;;;;;6235231;27;83825;-73
2024/01/01 00:20:02;;;;;;;63.40;41.97;;;23.50;45.50;;;;;;6236569;27;84415;-73
2024/01/01 00:23:03;;;;;;;65.90;42.03;;;23.60;45.40;;;;;;6233853;27;84121;-72
2024/01/01 00:26:03;;;;;;;63.45;43.83;;;23.60;45.40;;;;;;6229076;27;83815;-72
2024/01/01 00:29:05;;;;;;;66.53;40.17;;;23.50;45.50;;;;;;6232446;27;85873;-71
2024/01/01 00:32:06;;;;;;;69.53;43.95;;;23.60;45.40;;;;;;6233549;27;84236;-54
2024/01/01 00:35:06;;;;;;;66.75;44.38;;;23.50;44.90;;;;;;6232612;27;83842;-51
2024/01/01 00:38:07;;;;;;;66.57;44.35;;;23.60;44.90;;;;;;6231919;27;83638;-50
2024/01/01 00:41:07;;;;;;;55.40;38.53;;;23.60;44.80;;;;;;6228858;27;85758;-55
2024/01/01 00:44:08;;;;;;;57.92;38.25;;;23.60;45.00;;;;;;6232140;27;83676;-52
2024/01/01 00:47:08;;;;;;;56.67;39.65;;;23.60;44.80;;;;;;6231571;27;83994;-52
2024/01/01 00:50:09;;;;;;;61.50;42.08;;;23.60;44.60;;;;;;6232081;27;86302;-51
2024/01/01 00:53:10;;;;;;;63.80;41.25;;;23.60;44.70;;;;;;6229453;27;86312;-52
2024/01/01 00:56:11;;;;;;;58.97;40.60;;;23.60;44.80;;;;;;6229165;27;85022;-52
2024/01/01 00:59:11;;;;;;;56.92;38.88;;;23.60;44.90;;;;;;6228762;27;84313;-49
2024/01/01 01:02:12;;;;;;;60.00;41.38;;;23.60;44.70;;;;;;6228219;27;86009;-54
2024/01/01 01:05:13;;;;;;;62.78;40.50;;;23.60;44.50;;;;;;6229985;27;84918;-51
2024/01/01 01:08:13;;;;;;;56.65;39.47;;;23.60;44.80;;;;;;6227838;27;84142;-53
2024/01/01 01:11:14;;;;;;;51.78;37.17;;;23.60;44.40;;;;;;6228458;27;85805;-49
2024/01/01 01:14:14;;;;;;;54.33;36.97;;;23.60;44.60;;;;;;6228967;27;84732;-52
2024/01/01 01:17:15;;;;;;;52.47;37.25;;;23.60;44.70;;;;;;6232776;27;83499;-50
2024/01/01 01:20:15;;;;;;;50.33;36.20;;;23.50;44.50;;;;;;6227751;27;84360;-51
2024/01/01 01:23:16;;;;;;;50.78;34.35;;;23.50;44.40;;;;;;6230631;27;84327;-52
2024/01/01 01:26:16;;;;;;;53.97;38.35;;;23.50;44.50;;;;;;6231809;27;83646;-53
2024/01/01 01:29:17;;;;;;;55.10;35.72;;;23.60;44.40;;;;;;6223240;27;85296;-49
2024/01/01 01:32:18;;;;;;;51.50;35.17;;;23.60;44.60;;;;;;6231600;27;85749;-48
2024/01/01 01:35:18;;;;;;;50.85;33.38;;;23.60;44.50;;;;;;6231493;27;85029;-49
2024/01/01 01:38:19;;;;;;;46.25;32.72;;;23.70;44.50;;;;;;6231564;27;85323;-51
2024/01/01 01:41:20;;;;;;;47.92;31.75;;;23.70;44.40;;;;;;6228864;27;85793;-48
2024/01/01 01:44:20;;;;;;;54.13;32.42;;;23.60;44.40;;;;;;6233333;27;84837;-62
2024/01/01 01:47:21;;;;;;;43.35;30.52;;;23.60;44.40;;;;;;6235567;27;86605;-62
2024/01/01 01:50:21;;;;;;;44.47;31.15;;;23.70;44.40;;;;;;6236325;27;85365;-62
2024/01/01 01:53:25;;;;;;;44.58;29.38;;;23.60;44.20;;;;;;6234994;27;83632;-62
2024/01/01 01:56:25;;;;;;;37.85;27.55;;;23.70;44.50;;;;;;6236871;27;84289;-63
2024/01/01 01:59:26;;;;;;;44.63;29.40;;;23.60;44.40;;;;;;6235024;27;86493;-61
2024/01/01 02:02:26;;;;;;;44.03;29.55;;;23.70;44.50;;;;;;6237036;27;86152;-62
2024/01/01 02:05:27;;;;;;;40.83;28.92;;;23.70;44.60;;;;;;6233429;27;83989;-62
2024/01/01 02:08:28;;;;;;;43.10;28.90;;;23.70;44.60;;;;;;6232664;27;84725;-62
2024/01/01 02:11:28;;;;;;;43.03;29.38;;;23.60;44.70;;;;;;6242697;27;84862;-62
2024/01/01 02:14:30;;;;;;;44.35;30.45;;;23.60;44.30;;;;;;6231783;27;85932;-63
2024/01/01 02:17:31;;;;;;;38.53;27.48;;;23.60;44.30;;;;;;6233541;27;84200;-61
2024/01/01 02:20:31;;;;;;;41.28;27.90;;;23.60;44.20;;;;;;6236430;27;85637;-61
2024/01/01 02:23:32;;;;;;;41.83;28.98;;;23.60;44.50;;;;;;6230629;27;87128;-60
2024/01/01 02:26:33;;;;;;;42.70;30.10;;;23.60;44.50;;;;;;6234603;27;86001;-59
2024/01/01 02:29:33;;;;;;;42.90;30.80;;;23.60;44.30;;;;;;6235384;27;83301;-60
2024/01/01 02:32:34;;;;;;;43.47;30.63;;;23.60;44.40;;;;;;6234940;27;84260;-60
2024/01/01 02:35:34;;;;;;;43.05;29.98;;;23.60;44.40;;;;;;6227274;27;86406;-60
2024/01/01 02:38:35;;;;;;;43.65;30.13;;;23.60;44.60;;;;;;6231903;27;83796;-60
2024/01/01 02:41:35;;;;;;;45.00;30.45;;;23.60;44.50;;;;;;6231904;27;87371;-60
2024/01/01 02:44:36;;;;;;;44.92;29.23;;;23.60;44.40;;;;;;6221021;27;84273;-60
2024/01/01 02:47:37;;;;;;;42.92;29.05;;;23.60;44.40;;;;;;6232036;27;84041;-60
2024/01/01 02:50:38;;;;;;;40.38;28.98;;;23.50;44.20;;;;;;6232725;27;83268;-61
2024/01/01 02:53:39;;;;;;;44.50;30.23;;;23.50;44.20;;;;;;6233532;27;84434;-60
2024/01/01 02:56:39;;;;;;;41.03;28.88;;;23.50;44.20;;;;;;6268571;27;84507;-61
2024/01/01 02:59:40;;;;;;;43.38;29.73;;;23.50;44.20;;;;;;6233900;27;84214;-60
2024/01/01 03:02:41;;;;;;;46.00;28.42;;;23.50;44.30;;;;;;6233240;27;85716;-60
2024/01/01 03:05:43;;;;;;;43.67;29.33;;;23.50;44.50;;;;;;6232120;27;88314;-60
2024/01/01 03:08:43;;;;;;;42.92;28.67;;;23.50;44.90;;;;;;6240956;27;84794;-59
2024/01/01 03:11:44;;;;;;;47.42;30.58;;;23.50;44.30;;;;;;6234289;27;83916;-59
2024/01/01 03:14:44;;;;;;;45.25;29.45;;;23.50;44.20;;;;;;6247173;28;85581;-59
2024/01/01 03:17:45;;;;;;;42.05;28.52;;;23.50;44.20;;;;;;6237997;27;84115;-48
2024/01/01 03:20:45;;;;;;;43.25;28.67;;;23.50;44.20;;;;;;6243860;27;83320;-46
2024/01/01 03:23:46;;;;;;;44.70;30.88;;;23.50;44.40;;;;;;6246218;27;83528;-51
2024/01/01 03:26:46;;;;;;;43.92;29.50;;;23.50;44.40;;;;;;6248641;27;83220;-46
2024/01/01 03:29:47;;;;;;;44.17;29.40;;;23.50;44.50;;;;;;6246254;27;84530;-45
2024/01/01 03:32:47;;;;;;;44.83;29.90;;;23.50;44.40;;;;;;6247803;27;83171;-49
2024/01/01 03:35:48;;;;;;;41.85;29.13;;;23.50;44.10;;;;;;6246830;27;83532;-47
2024/01/01 03:38:48;;;;;;;46.80;30.33;;;23.50;44.20;;;;;;6245067;27;86419;-47
2024/01/01 03:41:49;;;;;;;42.33;29.65;;;23.50;44.20;;;;;;6241766;27;86055;-47
2024/01/01 03:44:49;;;;;;;41.80;29.25;;;23.50;44.60;;;;;;6245711;27;83372;-46
2024/01/01 03:47:51;;;;;;;44.50;28.98;;;23.50;44.40;;;;;;6245169;27;84200;-46
2024/01/01 03:50:51;;;;;;;43.40;28.85;;;23.50;44.40;;;;;;6243651;27;83344;-46
2024/01/01 03:53:52;;;;;;;41.97;27.67;;;23.60;44.50;;;;;;6244154;27;85307;-50
2024/01/01 03:56:52;;;;;;;42.35;29.00;;;23.50;44.40;;;;;;6244811;27;82977;-50
2024/01/01 03:59:53;;;;;;;43.33;28.73;;;23.50;44.30;;;;;;6258489;27;84883;-51
2024/01/01 04:02:53;;;;;;;40.35;27.00;;;23.50;44.40;;;;;;6246549;27;83430;-50
2024/01/01 04:05:54;;;;;;;40.65;28.88;;;23.50;44.30;;;;;;6246770;27;83549;-49
2024/01/01 04:08:54;;;;;;;44.65;28.77;;;23.50;44.30;;;;;;6247080;27;83760;-54
2024/01/01 04:11:55;;;;;;;40.15;27.05;;;23.50;44.20;;;;;;6241119;27;84074;-51
2024/01/01 04:14:56;;;;;;;41.20;27.77;;;23.50;44.60;;;;;;6244820;27;84231;-53
2024/01/01 04:17:56;;;;;;;40.20;26.35;;;23.50;44.50;;;;;;6248469;27;85506;-50
2024/01/01 04:20:57;;;;;;;43.95;27.60;;;23.50;44.50;;;;;;6247349;27;83188;-52
2024/01/01 04:23:58;;;;;;;40.25;26.17;;;23.50;44.50;;;;;;6247600;27;83222;-50
2024/01/01 04:26:58;;;;;;;41.03;26.55;;;23.60;44.60;;;;;;6247671;27;84690;-50
2024/01/01 04:29:59;;;;;;;37.88;24.10;;;23.60;44.60;;;;;;6247471;27;84097;-51
2024/01/01 04:32:59;;;;;;;39.90;25.35;;;23.60;44.50;;;;;;6247296;27;83819;-51
2024/01/01 04:36:00;;;;;;;37.58;25.98;;;23.60;44.30;;;;;;6246933;27;83228;-51
2024/01/01 04:39:03;;;;;;;37.75;25.23;;;23.60;44.10;;;;;;6248029;27;84262;-53
2024/01/01 04:42:03;;;;;;;38.75;25.30;;;23.70;44.10;;;;;;6246703;27;85269;-52
2024/01/01 04:45:04;;;;;;;35.05;25.13;;;23.70;44.10;;;;;;6233721;27;86571;-51
2024/01/01 04:48:05;;;;;;;35.83;24.25;;;23.70;44.10;;;;;;6247585;27;83346;-47
2024/01/01 04:51:06;;;;;;;35.92;24.83;;;23.70;44.00;;;;;;6245891;27;84000;-50
2024/01/01 04:54:06;;;;;;;34.65;23.92;;;23.70;44.00;;;;;;6246119;27;83833;-51
2024/01/01 04:57:07;;;;;;;35.05;23.63;;;23.70;43.90;;;;;;6247088;27;83752;-48
2024/01/01 05:00:07;;;;;;;35.78;23.70;;;23.80;44.00;;;;;;6246454;27;84203;-48
2024/01/01 05:03:08;;;;;;;34.33;23.85;;;23.80;43.90;;;;;;6231180;27;85072;-51
2024/01/01 05:06:08;;;;;;;39.08;24.65;;;23.80;43.80;;;;;;6240367;27;84015;-69
2024/01/01 05:09:08;;;;;;;36.70;24.95;;;23.80;43.80;;;;;;6243379;27;83473;-67
2024/01/01 05:12:09;;;;;;;35.50;23.13;;;23.80;43.80;;;;;;6247804;27;83180;-66
2024/01/01 05:15:09;;;;;;;36.63;23.63;;;23.80;43.70;;;;;;6243789;27;83686;-65
2024/01/01 05:18:10;;;;;;;35.90;23.23;;;23.80;43.70;;;;;;6244204;27;83354;-65
2024/01/01 05:21:10;;;;;;;33.85;22.50;;;23.90;43.70;;;;;;6246964;27;83925;-69
2024/01/01 05:24:11;;;;;;;32.28;22.48;;;23.90;43.80;;;;;;6245811;27;86019;-69
2024/01/01 05:27:11;;;;;;;33.80;24.27;;;23.90;43.70;;;;;;6245927;27;83994;-65
2024/01/01 05:30:12;;;;;;;34.30;23.73;;;23.90;43.70;;;;;;6245017;27;83085;-64
2024/01/01 05:33:13;;;;;;;33.20;22.80;;;23.90;43.70;;;;;;6246795;27;83356;-65
2024/01/01 05:36:13;;;;;;;39.88;24.10;;;23.90;43.70;;;;;;6246790;27;82887;-67
2024/01/01 05:39:14;;;;;;;36.03;23.98;;;24.00;43.70;;;;;;6245777;27;84557;-68
2024/01/01 05:42:15;;;;;;;33.88;24.02;;;24.00;43.70;;;;;;6246006;27;84445;-66
2024/01/01 05:45:15;;;;;;;35.78;23.60;;;24.00;43.70;;;;;;6246892;27;83803;-51
2024/01/01 05:48:16;;;;;;;32.33;22.73;;;24.00;43.70;;;;;;6244070;28;86345;-52
2024/01/01 05:51:18;;;;;;;36.15;23.98;;;24.00;43.50;;;;;;6247438;27;83366;-51
2024/01/01 05:54:18;;;;;;;36.22;24.17;;;24.00;43.50;;;;;;6246049;27;83120;-51
2024/01/01 05:57:19;;;;;;;34.10;23.25;;;24.00;43.50;;;;;;6245613;27;83203;-50
2024/01/01 06:00:19;;;;;;;34.33;24.60;;;24.00;43.40;;;;;;6246034;27;83560;-53
2024/01/01 06:03:20;;;;;;;37.50;24.00;;;24.00;43.50;;;;;;6245475;27;83586;-52
2024/01/01 06:06:20;;;;;;;35.47;25.42;;;24.00;43.50;;;;;;6245871;27;84606;-50
2024/01/01 06:09:21;;;;;;;34.65;24.27;;;24.00;43.50;;;;;;6245763;27;84427;-49
2024/01/01 06:12:23;;;;;;;35.88;24.27;;;24.00;43.90;;;;;;6245756;27;83127;-50
2024/01/01 06:15:23;;;;;;;38.13;24.48;;;24.00;43.70;;;;;;6245884;27;83275;-53
2024/01/01 06:18:25;;;;;;;38.58;23.42;;;24.00;43.90;;;;;;6245275;27;82848;-53
2024/01/01 06:21:26;;;;;;;33.45;24.25;;;24.00;43.70;;;;;;6245854;27;91070;-65
2024/01/01 06:24:26;;;;;;;36.15;24.35;;;24.00;43.80;;;;;;6245560;27;83927;-63
2024/01/01 06:27:27;;;;;;;36.65;24.02;;;24.00;44.00;;;;;;6242680;27;83344;-67
2024/01/01 06:30:28;;;;;;;32.20;23.33;;;24.00;44.20;;;;;;6248355;27;83866;-63
2024/01/01 06:33:29;;;;;;;36.40;24.27;;;24.00;44.40;;;;;;6247906;27;82844;-65
2024/01/01 06:36:30;;;;;;;32.83;22.65;;;24.00;44.80;;;;;;6249785;27;84345;-67
2024/01/01 06:39:30;;;;;;;37.08;23.60;;;24.00;45.20;;;;;;6248929;27;84471;-61
2024/01/01 06:42:31;;;;;;;33.45;23.00;;;23.90;45.00;;;;;;6249343;27;87911;-58
2024/01/01 06:45:31;;;;;;;34.55;23.00;;;23.90;44.80;;;;;;6249337;27;85762;-59
2024/01/01 06:48:32;;;;;;;35.67;23.45;;;23.90;45.50;;;;;;6249867;27;84401;-60
2024/01/01 06:51:33;;;;;;;31.65;21.80;;;23.80;44.90;;;;;;6248679;27;83721;-58
2024/01/01 06:54:33;;;;;;;34.47;21.38;;;23.80;45.00;;;;;;6248916;27;83199;-59
2024/01/01 06:57:34;;;;;;;37.35;24.08;;;23.80;46.00;;;;;;6247994;27;83375;-59
2024/01/01 07:00:34;;;;;;;29.52;21.27;;;23.80;45.40;;;;;;6247496;27;83648;-59
2024/01/01 07:03:35;;;;;;;34.05;21.55;;;23.80;45.40;;;;;;6246758;27;84810;-59
2024/01/01 07:06:35;;;;;;;30.25;20.42;;;23.70;45.50;;;;;;6248131;27;88490;-58
2024/01/01 07:09:36;;;;;;;33.03;20.15;;;23.70;45.80;;;;;;6246868;27;83496;-60
2024/01/01 07:12:36;;;;;;;29.38;19.08;;;23.70;47.30;;;;;;6239645;27;84316;-59
2024/01/01 07:15:37;;;;;;;32.28;20.33;;;23.70;46.70;;;;;;6247861;27;84255;-50
2024/01/01 07:18:37;;;;;;;28.27;17.95;;;23.70;46.70;;;;;;6247292;27;83131;-54
2024/01/01 07:21:38;;;;;;;34.65;18.77;;;23.70;46.70;;;;;;6249134;27;83270;-55
2024/01/01 07:24:38;;;;;;;26.42;17.35;;;23.70;47.20;;;;;;6248966;27;83136;-53
2024/01/01 07:27:42;;;;;;;26.33;16.88;;;23.70;48.10;;;;;;6245094;27;83133;-50
2024/01/01 07:30:42;;;;;;;27.85;17.98;;;23.70;48.80;;;;;;6248823;27;83021;-52
2024/01/01 07:33:43;;;;;;;25.33;17.48;;;23.80;48.40;;;;;;6247681;27;83134;-52
2024/01/01 07:36:43;;;;;;;27.10;17.70;;;23.80;48.40;;;;;;6248700;27;83121;-56
2024/01/01 07:39:44;;;;;;;25.58;17.45;;;23.80;49.30;;;;;;6240558;27;83525;-57
2024/01/01 07:42:44;;;;;;;29.20;18.10;;;23.80;49.70;;;;;;6246959;27;83825;-55
2024/01/01 07:45:45;;;;;;;25.98;15.38;;;23.80;49.40;;;;;;6246314;27;82909;-54
2024/01/01 07:48:45;;;;;;;29.70;17.00;;;23.80;49.90;;;;;;6242233;27;84809;-49
2024/01/01 07:51:46;;;;;;;24.73;16.45;;;23.80;49.60;;;;;;6243910;27;85394;-54
2024/01/01 07:54:47;;;;;;;24.40;16.83;;;23.90;49.50;;;;;;6244016;27;84268;-54
2024/01/01 07:57:47;;;;;;;25.08;16.73;;;23.90;49.40;;;;;;6243411;27;85420;-51
2024/01/01 08:00:48;;;;;;;26.77;15.90;;;23.90;49.50;;;;;;6245086;27;85398;-51
2024/01/01 08:03:49;;;;;;;28.67;17.15;;;23.80;49.50;;;;;;6240481;27;83379;-50
2024/01/01 08:06:49;;;;;;;24.63;16.80;;;23.90;49.70;;;;;;6240163;27;85712;-53
2024/01/01 08:09:50;;;;;;;29.85;16.38;;;23.90;50.60;;;;;;6243262;27;84394;-53
2024/01/01 08:12:50;;;;;;;25.85;16.05;;;23.90;50.90;;;;;;6246022;27;83681;-54
2024/01/01 08:15:50;;;;;;;23.50;15.13;;;23.90;50.90;;;;;;6247350;27;83044;-50
2024/01/01 08:18:52;;;;;;;28.83;17.77;;;23.90;50.50;;;;;;6246257;27;83889;-49
2024/01/01 08:21:53;;;;;;;23.02;15.13;;;23.90;50.10;;;;;;6237374;27;83562;-50
2024/01/01 08:24:53;;;;;;;24.10;14.98;;;23.80;50.30;;;;;;6245279;27;82929;-54
2024/01/01 08:27:54;;;;;;;22.35;16.17;;;23.80;50.50;;;;;;6247633;27;84458;-60
2024/01/01 08:30:55;;;;;;;29.23;19.98;;;23.80;49.90;;;;;;6239577;27;84358;-50
2024/01/01 08:33:55;;;;;;;32.88;22.48;;;23.70;47.10;;;;;;6245635;27;85071;-51
2024/01/01 08:36:56;;;;;;;33.90;23.38;;;23.50;46.30;;;;;;6242813;27;84065;-50
2024/01/01 08:39:56;;;;;;;36.08;23.42;;;23.30;46.10;;;;;;6245016;27;83008;-51
2024/01/01 08:42:57;;;;;;;35.75;24.05;;;23.10;45.90;;;;;;6245580;27;83918;-53
2024/01/01 08:46:00;;;;;;;37.80;23.85;;;22.90;45.80;;;;;;6245692;27;83397;-52
2024/01/01 08:49:00;;;;;;;35.67;24.83;;;22.80;45.80;;;;;;6245817;27;83136;-64
2024/01/01 08:52:01;;;;;;;33.65;23.45;;;22.60;45.60;;;;;;6245946;27;82832;-62
2024/01/01 08:55:01;;;;;;;42.55;25.20;;;22.50;45.70;;;;;;6247334;27;83235;-61
2024/01/01 08:58:02;;;;;;;34.08;21.45;;;22.40;45.50;;;;;;6243861;27;83415;-59
2024/01/01 09:01:02;;;;;;;26.50;18.30;;;22.30;47.10;;;;;;6235754;27;84160;-60
2024/01/01 09:04:04;;;;;;;24.63;16.05;;;22.50;48.10;;;;;;6247404;27;85392;-60
2024/01/01 09:07:05;;;;;;;24.98;15.13;;;22.60;48.20;;;;;;6244632;27;83563;-59
2024/01/01 09:10:05;;;;;;;24.17;14.75;;;22.70;48.20;;;;;;6244485;27;83325;-59
2024/01/01 09:13:07;;;;;;;20.25;12.02;;;22.80;49.30;;;;;;6245482;27;83032;-60
2024/01/01 09:16:07;;;;;;;16.58;10.52;;;22.90;49.70;;;;;;6245926;27;84052;-58
2024/01/01 09:19:08;;;;;;;15.05;10.45;;;22.90;49.30;;;;;;6246305;27;83166;-60
2024/01/01 09:22:08;;;;;;;18.63;11.85;;;23.00;49.20;;;;;;6245596;27;83208;-61
2024/01/01 09:25:09;;;;;;;15.05;10.38;;;23.00;48.80;;;;;;6244897;27;83316;-47
2024/01/01 09:28:09;;;;;;;16.20;11.48;;;23.10;49.20;;;;;;6244444;27;84145;-51
2024/01/01 09:31:10;;;;;;;19.13;11.05;;;23.20;49.00;;;;;;6244765;27;83278;-49
2024/01/01 09:34:10;;;;;;;17.23;10.10;;;23.20;49.60;;;;;;6244754;27;90109;-48
2024/01/01 09:37:11;;;;;;;15.05;9.57;;;23.20;48.70;;;;;;6245317;27;84652;-52
2024/01/01 09:40:11;;;;;;;16.42;10.13;;;23.20;48.80;;;;;;6249821;27;83159;-49
2024/01/01 09:43:12;;;;;;;16.30;9.93;;;23.20;49.10;;;;;;6247180;27;83188;-52
2024/01/01 09:46:14;;;;;;;17.27;10.10;;;23.20;48.30;;;;;;6249591;27;82933;-47
2024/01/01 09:49:14;;;;;;;15.75;9.77;;;23.30;48.20;;;;;;6246834;27;83281;-48
2024/01/01 09:52:15;;;;;;;13.43;7.90;;;23.30;48.60;;;;;;6245088;27;82906;-49
2024/01/01 09:55:15;;;;;;;15.32;8.85;;;23.30;48.80;;;;;;6245713;27;84660;-51
2024/01/01 09:58:16;;;;;;;11.52;7.38;;;23.30;49.20;;;;;;6246820;27;85092;-47
2024/01/01 10:01:18;;;;;;;11.13;8.15;;;23.30;48.50;;;;;;6247974;27;81480;-49
2024/01/01 10:04:19;;;;;;;16.27;7.68;;;23.40;48.30;;;;;;6250375;27;80849;-48
2024/01/01 10:07:19;;;;;;;11.05;7.35;;;23.40;48.20;;;;;;6253857;27;83888;-52
2024/01/01 10:10:20;;;;;;;24.02;6.82;;;23.50;48.10;;;;;;6250155;27;85520;-48
2024/01/01 10:13:20;;;;;;;10.35;7.05;;;23.50;48.80;;;;;;6246664;27;80713;-48
2024/01/01 10:16:21;;;;;;;10.20;6.50;;;23.60;48.60;;;;;;6253174;27;81588;-49
2024/01/01 10:19:21;;;;;;;10.07;6.07;;;23.60;48.60;;;;;;6242640;27;80580;-49
2024/01/01 10:22:23;;;;;;;11.65;6.28;;;23.70;48.70;;;;;;6253902;27;80535;-51
2024/01/01 10:25:24;;;;;;;11.70;6.07;;;23.70;49.00;;;;;;6250186;27;81622;-49
2024/01/01 10:28:24;;;;;;;11.35;5.80;;;23.70;48.50;;;;;;6251524;27;80389;-47
2024/01/01 10:31:25;;;;;;;7.97;5.30;;;23.80;48.70;;;;;;6252959;27;80607;-53
2024/01/01 10:34:25;;;;;;;8.77;5.78;;;23.80;48.40;;;;;;6251222;27;80456;-50
2024/01/01 10:37:26;;;;;;;9.13;5.63;;;23.90;48.30;;;;;;6252452;27;80591;-60
2024/01/01 10:40:26;;;;;;;7.60;4.80;;;23.90;48.20;;;;;;6249126;27;81376;-60
2024/01/01 10:43:30;;;;;;;11.30;5.13;;;23.90;48.40;;;;;;6243367;27;80916;-58
2024/01/01 10:46:30;;;;;;;7.30;4.75;;;23.90;48.30;;;;;;6253495;27;80649;-62
2024/01/01 10:49:31;;;;;;;6.47;4.43;;;24.00;48.10;;;;;;6251920;27;81597;-60
2024/01/01 10:52:31;;;;;;;7.88;4.28;;;24.00;48.10;;;;;;6256039;27;82630;-60
2024/01/01 10:55:32;;;;;;;7.38;3.70;;;24.00;48.10;;;;;;6254379;27;80358;-60
2024/01/01 10:58:32;;;;;;;5.82;3.80;;;24.00;48.00;;;;;;6254826;27;81943;-61
2024/01/01 11:01:33;;;;;;;5.75;3.72;;;24.00;47.70;;;;;;6255001;27;80791;-60
2024/01/01 11:04:33;;;;;;;5.93;3.58;;;24.10;47.70;;;;;;6252357;27;80782;-60
2024/01/01 11:07:34;;;;;;;6.70;3.20;;;24.10;47.30;;;;;;6251240;27;80822;-59
2024/01/01 11:10:35;;;;;;;6.10;3.10;;;24.10;47.30;;;;;;6253781;27;86075;-60
2024/01/01 11:13:36;;;;;;;4.97;3.20;;;24.10;47.20;;;;;;6251071;27;83213;-60
2024/01/01 11:16:36;;;;;;;6.25;2.58;;;24.10;47.30;;;;;;6253047;27;82171;-60
2024/01/01 11:19:37;;;;;;;6.13;3.08;;;24.10;47.30;;;;;;6248842;27;80641;-60
2024/01/01 11:22:39;;;;;;;5.00;2.75;;;24.10;47.10;;;;;;6252149;27;81044;-60
2024/01/01 11:25:40;;;;;;;6.18;2.70;;;24.10;46.90;;;;;;6253882;27;81127;-60
2024/01/01 11:28:40;;;;;;;3.88;2.50;;;24.10;47.00;;;;;;6253352;27;80564;-60
2024/01/01 11:31:40;;;;;;;3.45;2.55;;;24.10;46.80;;;;;;6245485;27;80581;-59
2024/01/01 11:34:41;;;;;;;3.70;2.03;;;24.10;46.60;;;;;;6252463;27;80504;-57
2024/01/01 11:37:41;;;;;;;3.80;2.17;;;24.10;46.70;;;;;;6251417;27;91310;-58
2024/01/01 11:40:42;;;;;;;3.65;2.15;;;24.10;46.80;;;;;;6252705;27;80468;-56
2024/01/01 11:43:42;;;;;;;5.53;2.65;;;24.10;46.10;;;;;;6252432;27;81626;-57
2024/01/01 11:46:43;;;;;;;5.25;1.95;;;24.00;46.30;;;;;;6244261;27;81710;-59
2024/01/01 11:49:44;;;;;;;6.90;2.17;;;24.10;45.80;;;;;;6250773;27;80520;-61
2024/01/01 11:52:44;;;;;;;8.07;2.30;;;24.10;45.80;;;;;;6239926;27;80540;-58
2024/01/01 11:55:45;;;;;;;2.67;1.92;;;24.10;45.90;;;;;;6228061;27;85494;-61
2024/01/01 11:58:45;;;;;;;3.70;2.00;;;24.10;46.00;;;;;;6238077;27;80944;-60
2024/01/01 12:01:46;;;;;;;3.25;2.10;;;24.10;45.90;;;;;;6236678;27;80771;-60
2024/01/01 12:04:46;;;;;;;2.60;1.88;;;24.10;45.80;;;;;;6236047;27;82987;-61
2024/01/01 12:07:47;;;;;;;5.13;2.05;;;24.00;46.10;;;;;;6238004;27;81395;-58
2024/01/01 12:10:47;;;;;;;3.78;2.25;;;24.00;46.70;;;;;;6239125;27;81385;-61
2024/01/01 12:13:48;;;;;;;2.22;1.70;;;24.00;46.80;;;;;;6241911;27;81633;-59
2024/01/01 12:16:48;;;;;;;5.32;2.28;;;24.00;47.30;;;;;;6238932;27;80751;-59
2024/01/01 12:19:50;;;;;;;7.93;2.20;;;24.00;47.20;;;;;;6239571;27;85619;-60
2024/01/01 12:22:52;;;;;;;3.20;1.80;;;24.00;47.20;;;;;;6237860;27;81362;-60
2024/01/01 12:25:52;;;;;;;6.03;1.80;;;24.00;47.30;;;;;;6237694;27;81541;-58
2024/01/01 12:28:53;;;;;;;3.05;2.20;;;24.00;46.90;;;;;;6237395;27;82027;-53
2024/01/01 12:31:53;;;;;;;3.40;2.00;;;24.00;46.80;;;;;;6234940;27;85156;-53
2024/01/01 12:34:54;;;;;;;13.48;2.40;;;24.00;47.10;;;;;;6235704;27;83524;-52
2024/01/01 12:37:55;;;;;;;3.22;2.67;;;23.90;46.70;;;;;;6232094;27;81429;-54
2024/01/01 12:40:55;;;;;;;3.60;2.20;;;23.90;46.70;;;;;;6237032;27;82343;-50
2024/01/01 12:43:57;;;;;;;4.43;2.72;;;23.90;46.90;;;;;;6236588;27;81195;-51
2024/01/01 12:46:58;;;;;;;5.35;3.00;;;23.90;46.70;;;;;;6237179;27;81002;-61
2024/01/01 12:49:59;;;;;;;5.03;3.53;;;23.90;46.70;;;;;;6238363;27;80910;-62
2024/01/01 12:53:00;;;;;;;9.65;4.10;;;23.90;46.70;;;;;;6235465;27;81211;-60
2024/01/01 12:56:00;;;;;;;4.70;3.40;;;23.80;46.50;;;;;;6236970;27;81008;-61
2024/01/01 12:59:02;;;;;;;5.03;3.33;;;23.80;46.30;;;;;;6239595;27;82448;-59
2024/01/01 13:02:03;;;;;;;7.40;4.57;;;23.80;47.00;;;;;;6245726;27;80516;-58
2024/01/01 13:05:04;;;;;;;8.25;4.53;;;23.80;46.40;;;;;;6231763;27;93997;-51
2024/01/01 13:08:04;;;;;;;5.53;3.65;;;23.80;46.60;;;;;;6251067;27;80986;-51
2024/01/01 13:11:05;;;;;;;7.50;3.85;;;23.90;47.00;;;;;;6250033;27;80844;-50
2024/01/01 13:14:06;;;;;;;10.30;4.03;;;23.80;46.90;;;;;;6248424;27;80954;-49
2024/01/01 13:17:06;;;;;;;7.13;3.78;;;23.90;47.20;;;;;;6246913;27;82203;-51
2024/01/01 13:20:07;;;;;;;8.13;4.63;;;23.80;47.40;;;;;;6248566;27;81625;-54
2024/01/01 13:23:11;;;;;;;5.70;4.10;;;23.90;47.10;;;;;;6220333;27;83297;-51
2024/01/01 13:26:12;;;;;;;7.55;4.07;;;23.90;47.20;;;;;;6229256;27;80524;-50
2024/01/01 13:29:12;;;;;;;6.20;3.92;;;23.80;47.40;;;;;;6227363;27;82065;-50
2024/01/01 13:32:13;;;;;;;8.82;5.47;;;23.80;47.10;;;;;;6227449;27;82634;-51
2024/01/01 13:35:13;;;;;;;5.88;4.28;;;23.80;46.80;;;;;;6224983;27;81831;-49
2024/01/01 13:38:14;;;;;;;7.57;4.32;;;23.80;47.20;;;;;;6229072;27;81520;-45
2024/01/01 13:41:15;;;;;;;5.32;4.18;;;23.80;47.10;;;;;;6229618;27;81405;-48
2024/01/01 13:44:15;;;;;;;11.18;5.43;;;23.80;47.20;;;;;;6229524;27;82503;-46
2024/01/01 13:47:16;;;;;;;7.40;4.97;;;23.80;46.50;;;;;;6233039;27;81363;-48
2024/01/01 13:50:18;;;;;;;9.27;6.10;;;23.80;46.40;;;;;;6232545;27;81279;-51
2024/01/01 13:53:18;;;;;;;7.13;5.90;;;23.80;46.20;;;;;;6230858;27;81348;-54
2024/01/01 13:56:18;;;;;;;13.45;7.20;;;23.70;46.10;;;;;;6230416;27;81039;-52
2024/01/01 13:59:19;;;;;;;13.55;6.90;;;23.70;46.10;;;;;;6233070;27;81239;-53
2024/01/01 14:02:20;;;;;;;15.68;8.30;;;23.70;46.40;;;;;;6231616;27;81908;-51
2024/01/01 14:05:20;;;;;;;11.82;7.15;;;23.70;47.10;;;;;;6229869;27;81332;-49
2024/01/01 14:08:21;;;;;;;14.80;7.28;;;23.60;47.30;;;;;;6229174;27;81829;-49
2024/01/01 14:11:21;;;;;;;20.80;6.88;;;23.60;47.60;;;;;;6420390;22;85613;-52
2024/01/01 14:14:22;;;;;;;27.77;8.35;;;23.60;48.20;;;;;;6178903;28;81070;-55
2024/01/01 14:17:23;;;;;;;15.95;7.20;;;23.60;48.50;;;;;;6193088;28;81386;-50
2024/01/01 14:20:23;;;;;;;16.63;7.57;;;23.60;48.20;;;;;;6193911;28;81120;-57
2024/01/01 14:23:24;;;;;;;17.50;7.65;;;23.60;48.00;;;;;;6195199;28;81392;-53
2024/01/01 14:26:24;;;;;;;21.45;8.50;;;23.60;48.00;;;;;;6175415;28;81931;-56
2024/01/01 14:29:29;;;;;;;23.30;11.02;;;23.50;48.00;;;;;;6187842;28;82195;-53
2024/01/01 14:32:29;;;;;;;36.15;19.58;;;23.50;47.90;;;;;;6187115;28;84228;-53
2024/01/01 14:35:30;;;;;;;48.70;22.52;;;23.50;48.30;;;;;;6186821;28;84419;-55
2024/01/01 14:38:30;;;;;;;37.00;21.45;;;23.50;48.20;;;;;;6183388;28;88630;-53
2024/01/01 14:41:34;;;;;;;42.60;19.23;;;23.50;48.60;;;;;;6193340;28;85225;-54
2024/01/01 14:44:35;;;;;;;40.70;19.25;;;23.50;48.80;;;;;;6199614;28;84974;-47
2024/01/01 14:47:37;;;;;;;43.30;24.88;;;23.50;48.20;;;;;;6187358;28;85589;-51
2024/01/01 14:50:39;;;;;;;42.60;22.88;;;23.50;48.10;;;;;;6194391;28;87589;-46
2024/01/01 14:53:39;;;;;;;33.10;17.83;;;23.50;48.10;;;;;;6185872;28;84514;-49
2024/01/01 14:56:40;;;;;;;31.35;16.35;;;23.50;47.90;;;;;;6194186;28;84383;-54
2024/01/01 14:59:40;;;;;;;21.83;13.55;;;23.50;48.20;;;;;;6185551;28;84076;-54
2024/01/01 15:02:41;;;;;;;19.52;12.40;;;23.50;49.50;;;;;;6196258;28;84631;-57
2024/01/01 15:05:42;;;;;;;21.02;10.82;;;23.50;49.90;;;;;;6182395;28;83852;-53
2024/01/01 15:08:43;;;;;;;19.15;10.75;;;23.50;49.50;;;;;;6158629;28;84264;-59
2024/01/01 15:11:43;;;;;;;15.40;10.50;;;23.50;50.70;;;;;;6170963;28;83577;-54
2024/01/01 15:14:44;;;;;;;16.90;9.75;;;23.40;50.60;;;;;;6184919;28;85389;-54
2024/01/01 15:17:44;;;;;;;27.35;9.77;;;23.40;51.50;;;;;;6193870;28;82570;-52
2024/01/01 15:20:45;;;;;;;19.00;10.15;;;23.40;51.40;;;;;;6187973;28;81926;-48
2024/01/01 15:23:45;;;;;;;22.38;10.02;;;23.40;51.80;;;;;;6190960;28;88429;-55